Time;durP1;ratioP1;P1;durP2;ratioP2;P2;SDS_P1;SDS_P2;PMS_P1;PMS_P2;Temp;Humidity;BMP_temperature;BMP_pressure;BME280_temperature;BME280_humidity;BME280_pressure;Samples;Min_cycle;Max_cycle;Signal;HPM_P1;HPM_P2
2023/07/29 00:01:43;;;;;;;4.00;2.85;;;;;;;;;;6302630;22;20049;-68
2023/07/29 00:04:09;;;;;;;4.88;3.03;;;;;;;;;;6302381;22;20018;-68
2023/07/29 00:06:35;;;;;;;10.20;2.92;;;;;;;;;;6303580;22;20675;-68
2023/07/29 00:09:02;;;;;;;8.23;2.97;;;;;;;;;;6303248;22;20003;-68
2023/07/29 00:11:28;;;;;;;9.35;3.13;;;;;;;;;;6303141;22;20341;-68
2023/07/29 00:13:54;;;;;;;10.75;3.35;;;;;;;;;;6302220;22;20000;-68
2023/07/29 00:16:22;;;;;;;15.13;4.32;;;;;;;;;;6303077;22;20018;-68
2023/07/29 00:18:49;;;;;;;7.78;3.50;;;;;;;;;;6302577;22;19999;-68
2023/07/29 00:21:14;;;;;;;4.43;3.20;;;;;;;;;;6303089;22;20000;-67
2023/07/29 00:23:40;;;;;;;6.85;3.15;;;;;;;;;;6302459;22;20102;-67
2023/07/29 00:26:06;;;;;;;8.60;3.95;;;;;;;;;;6302925;22;20493;-68
2023/07/29 00:28:32;;;;;;;8.18;3.47;;;;;;;;;;6302873;22;20003;-67
2023/07/29 00:30:58;;;;;;;7.53;3.97;;;;;;;;;;6275347;22;20102;-68
2023/07/29 00:33:24;;;;;;;7.32;3.78;;;;;;;;;;6302562;22;20393;-67
2023/07/29 00:35:50;;;;;;;7.82;4.20;;;;;;;;;;6275374;22;20039;-69
2023/07/29 00:38:16;;;;;;;13.95;4.32;;;;;;;;;;6275482;22;20392;-68
2023/07/29 00:40:42;;;;;;;8.07;3.83;;;;;;;;;;6303005;22;20326;-68
2023/07/29 00:43:08;;;;;;;6.78;3.70;;;;;;;;;;6302358;22;19999;-67
2023/07/29 00:45:35;;;;;;;7.43;3.63;;;;;;;;;;6301086;22;20007;-67
2023/07/29 00:48:02;;;;;;;10.35;4.07;;;;;;;;;;6303783;22;20013;-67
2023/07/29 00:50:30;;;;;;;13.70;4.45;;;;;;;;;;6276995;22;20057;-67
2023/07/29 00:52:56;;;;;;;6.13;3.28;;;;;;;;;;6304501;22;20310;-68
2023/07/29 00:55:23;;;;;;;13.18;4.15;;;;;;;;;;6305350;22;20015;-68
2023/07/29 00:57:54;;;;;;;10.40;3.60;;;;;;;;;;6304666;22;20027;-68
2023/07/29 01:00:21;;;;;;;13.00;3.38;;;;;;;;;;6304485;22;20011;-68
2023/07/29 01:02:46;;;;;;;8.63;3.78;;;;;;;;;;6276999;22;20075;-68
2023/07/29 01:05:15;;;;;;;8.50;3.70;;;;;;;;;;6276293;22;20457;-67
2023/07/29 01:07:55;;;;;;;8.63;3.50;;;;;;;;;;6304477;22;20006;-68
2023/07/29 01:10:45;;;;;;;8.98;3.75;;;;;;;;;;6304380;22;20073;-68
2023/07/29 01:13:27;;;;;;;7.78;3.33;;;;;;;;;;6302222;22;20460;-68
2023/07/29 01:16:00;;;;;;;6.78;3.17;;;;;;;;;;6304455;22;20035;-68
2023/07/29 01:18:30;;;;;;;5.95;3.10;;;;;;;;;;6277122;22;20015;-68
2023/07/29 01:20:59;;;;;;;6.68;3.30;;;;;;;;;;6276504;22;20098;-67
2023/07/29 01:23:33;;;;;;;7.28;2.85;;;;;;;;;;6276072;22;20007;-67
2023/07/29 01:25:59;;;;;;;6.72;3.40;;;;;;;;;;6304308;22;20022;-67
2023/07/29 01:28:26;;;;;;;10.27;3.70;;;;;;;;;;6276812;22;20011;-67
2023/07/29 01:31:04;;;;;;;12.52;3.55;;;;;;;;;;6302492;22;20072;-67
2023/07/29 01:33:42;;;;;;;13.18;3.83;;;;;;;;;;6302205;22;20397;-68
2023/07/29 01:36:13;;;;;;;11.68;4.13;;;;;;;;;;6304048;22;20014;-67
2023/07/29 01:38:42;;;;;;;11.63;3.92;;;;;;;;;;6277061;22;20011;-67
2023/07/29 01:41:09;;;;;;;10.30;3.90;;;;;;;;;;6304174;22;19998;-67
2023/07/29 01:43:42;;;;;;;9.90;4.40;;;;;;;;;;6302145;22;20080;-68
2023/07/29 01:46:15;;;;;;;7.40;3.25;;;;;;;;;;6276525;22;20026;-67
2023/07/29 01:48:42;;;;;;;7.38;3.97;;;;;;;;;;6304156;22;20046;-67
2023/07/29 01:51:09;;;;;;;8.35;3.50;;;;;;;;;;6303813;22;20019;-67
2023/07/29 01:53:35;;;;;;;6.75;3.58;;;;;;;;;;6303806;22;20011;-68
2023/07/29 01:56:02;;;;;;;10.13;3.67;;;;;;;;;;6304162;22;20007;-68
2023/07/29 01:58:28;;;;;;;8.38;4.00;;;;;;;;;;6276457;22;20015;-67
2023/07/29 02:00:53;;;;;;;8.05;4.38;;;;;;;;;;6276287;22;20452;-67
2023/07/29 02:03:19;;;;;;;6.13;3.53;;;;;;;;;;6304166;22;20053;-67
2023/07/29 02:05:45;;;;;;;9.13;3.65;;;;;;;;;;6304183;22;20334;-67
2023/07/29 02:08:11;;;;;;;12.25;4.40;;;;;;;;;;6304296;22;20082;-69
2023/07/29 02:10:37;;;;;;;7.20;4.03;;;;;;;;;;6276863;22;20010;-67
2023/07/29 02:13:04;;;;;;;8.02;4.10;;;;;;;;;;6302308;22;20011;-68
2023/07/29 02:15:29;;;;;;;6.57;3.63;;;;;;;;;;6302275;22;20013;-67
2023/07/29 02:17:55;;;;;;;7.57;4.13;;;;;;;;;;6276534;22;20410;-68
2023/07/29 02:20:21;;;;;;;7.75;4.22;;;;;;;;;;6276055;22;20376;-67
2023/07/29 02:22:48;;;;;;;8.02;3.85;;;;;;;;;;6276231;22;20014;-67
2023/07/29 02:25:14;;;;;;;8.23;3.95;;;;;;;;;;6276170;22;20078;-67
2023/07/29 02:27:40;;;;;;;8.77;3.90;;;;;;;;;;6303784;22;20037;-68
2023/07/29 02:30:09;;;;;;;6.72;3.40;;;;;;;;;;6275394;22;20007;-67
2023/07/29 02:32:35;;;;;;;5.03;3.28;;;;;;;;;;6301025;22;20018;-68
2023/07/29 02:35:01;;;;;;;4.93;3.05;;;;;;;;;;6302695;22;20003;-67
2023/07/29 02:37:27;;;;;;;7.70;3.58;;;;;;;;;;6276400;22;20092;-68
2023/07/29 02:39:52;;;;;;;7.72;3.70;;;;;;;;;;6275926;22;20429;-67
2023/07/29 02:42:18;;;;;;;5.47;3.25;;;;;;;;;;6301422;22;20012;-68
2023/07/29 02:44:44;;;;;;;7.32;3.40;;;;;;;;;;6275228;22;20007;-67
2023/07/29 02:47:10;;;;;;;6.93;4.00;;;;;;;;;;6301803;22;20015;-68
2023/07/29 02:49:35;;;;;;;21.08;4.78;;;;;;;;;;6253059;22;20007;-68
2023/07/29 02:52:01;;;;;;;9.68;3.95;;;;;;;;;;6278050;22;20056;-66
2023/07/29 02:54:27;;;;;;;12.95;4.57;;;;;;;;;;6278191;22;20011;-67
2023/07/29 02:56:53;;;;;;;15.52;4.68;;;;;;;;;;6305929;22;20015;-67
2023/07/29 02:59:19;;;;;;;8.50;3.95;;;;;;;;;;6303950;22;20041;-67
2023/07/29 03:01:45;;;;;;;9.48;4.35;;;;;;;;;;6278188;22;20057;-67
2023/07/29 03:04:12;;;;;;;9.73;3.80;;;;;;;;;;6302908;22;20523;-67
2023/07/29 03:06:39;;;;;;;6.60;3.78;;;;;;;;;;6302594;22;20057;-67
2023/07/29 03:09:04;;;;;;;19.17;5.65;;;;;;;;;;6304291;22;20418;-67
2023/07/29 03:11:31;;;;;;;12.82;4.18;;;;;;;;;;6306261;22;20014;-67
2023/07/29 03:13:57;;;;;;;6.88;4.30;;;;;;;;;;6278901;22;20013;-67
2023/07/29 03:16:23;;;;;;;10.35;4.47;;;;;;;;;;6279151;22;20011;-67
2023/07/29 03:18:53;;;;;;;6.40;4.05;;;;;;;;;;6307318;22;20332;-67
2023/07/29 03:21:19;;;;;;;10.98;5.18;;;;;;;;;;6306775;22;20030;-67
2023/07/29 03:23:44;;;;;;;12.57;4.35;;;;;;;;;;6306002;22;20014;-67
2023/07/29 03:26:11;;;;;;;6.80;4.55;;;;;;;;;;6307004;22;20011;-67
2023/07/29 03:28:41;;;;;;;15.98;5.95;;;;;;;;;;6279064;22;20096;-67
2023/07/29 03:31:07;;;;;;;12.75;5.65;;;;;;;;;;6279001;22;20019;-67
2023/07/29 03:33:33;;;;;;;8.32;4.93;;;;;;;;;;6278823;22;20057;-67
2023/07/29 03:35:59;;;;;;;8.98;4.72;;;;;;;;;;6279111;22;20094;-67
2023/07/29 03:38:24;;;;;;;9.73;4.55;;;;;;;;;;6278966;22;20337;-68
2023/07/29 03:40:51;;;;;;;11.55;4.93;;;;;;;;;;6278735;22;20007;-68
2023/07/29 03:43:17;;;;;;;10.20;5.25;;;;;;;;;;6306065;22;19999;-68
2023/07/29 03:45:42;;;;;;;12.48;4.40;;;;;;;;;;6278723;22;20022;-68
2023/07/29 03:48:08;;;;;;;8.35;4.53;;;;;;;;;;6278928;22;20007;-67
2023/07/29 03:50:36;;;;;;;11.27;4.85;;;;;;;;;;6278619;22;20437;-68
2023/07/29 03:53:05;;;;;;;13.70;5.00;;;;;;;;;;6306165;22;20011;-68
2023/07/29 03:55:31;;;;;;;13.65;5.03;;;;;;;;;;6304459;22;20101;-67
2023/07/29 03:57:58;;;;;;;13.65;5.10;;;;;;;;;;6278975;22;20019;-69
2023/07/29 04:00:24;;;;;;;11.90;4.63;;;;;;;;;;6306354;22;20329;-67
2023/07/29 04:02:50;;;;;;;11.98;4.47;;;;;;;;;;6304868;22;20031;-68
2023/07/29 04:05:16;;;;;;;9.13;4.13;;;;;;;;;;6278950;22;20501;-68
2023/07/29 04:07:43;;;;;;;13.52;4.75;;;;;;;;;;6279235;22;20088;-67
2023/07/29 04:10:09;;;;;;;20.40;5.28;;;;;;;;;;6279277;22;20017;-69
2023/07/29 04:12:35;;;;;;;11.05;4.05;;;;;;;;;;6278931;22;20007;-68
2023/07/29 04:15:01;;;;;;;9.60;3.95;;;;;;;;;;6279038;22;20018;-68
2023/07/29 04:17:27;;;;;;;6.22;3.67;;;;;;;;;;6304880;22;20013;-68
2023/07/29 04:19:52;;;;;;;15.23;4.55;;;;;;;;;;6278718;22;20093;-68
2023/07/29 04:22:21;;;;;;;9.13;4.40;;;;;;;;;;6279444;22;19999;-66
2023/07/29 04:24:46;;;;;;;11.98;3.65;;;;;;;;;;6280859;22;20145;-68
2023/07/29 04:27:12;;;;;;;8.35;3.67;;;;;;;;;;6280640;22;20003;-69
2023/07/29 04:29:38;;;;;;;10.32;3.60;;;;;;;;;;6308112;22;20386;-68
2023/07/29 04:32:05;;;;;;;10.57;3.97;;;;;;;;;;6254882;22;20030;-68
2023/07/29 04:34:31;;;;;;;9.43;3.85;;;;;;;;;;6280054;22;20011;-67
2023/07/29 04:36:57;;;;;;;13.25;4.28;;;;;;;;;;6306293;22;20065;-68
2023/07/29 04:39:23;;;;;;;7.68;3.88;;;;;;;;;;6280365;22;20045;-68
2023/07/29 04:41:49;;;;;;;16.33;4.88;;;;;;;;;;6280174;22;20325;-68
2023/07/29 04:44:15;;;;;;;9.82;4.03;;;;;;;;;;6280066;22;20137;-68
2023/07/29 04:46:40;;;;;;;6.15;3.80;;;;;;;;;;6308133;22;20337;-68
2023/07/29 04:49:06;;;;;;;7.82;3.47;;;;;;;;;;6280406;22;20021;-68
2023/07/29 04:51:32;;;;;;;9.40;3.90;;;;;;;;;;6280216;22;20003;-67
2023/07/29 04:53:58;;;;;;;9.05;3.88;;;;;;;;;;6307775;22;20007;-67
2023/07/29 04:56:24;;;;;;;6.50;3.83;;;;;;;;;;6280625;22;20030;-67
2023/07/29 04:58:50;;;;;;;8.88;3.65;;;;;;;;;;6280372;22;20011;-67
2023/07/29 05:01:16;;;;;;;14.65;4.00;;;;;;;;;;6279973;22;20455;-67
2023/07/29 05:03:42;;;;;;;10.60;3.85;;;;;;;;;;6307508;22;20018;-67
2023/07/29 05:06:08;;;;;;;11.88;3.90;;;;;;;;;;6307511;22;20351;-67
2023/07/29 05:08:34;;;;;;;9.43;4.28;;;;;;;;;;6306137;22;20022;-67
2023/07/29 05:11:00;;;;;;;7.18;3.67;;;;;;;;;;6307906;22;20333;-68
2023/07/29 05:13:25;;;;;;;7.32;3.60;;;;;;;;;;6307744;22;20019;-67
2023/07/29 05:15:51;;;;;;;11.07;4.28;;;;;;;;;;6306120;22;20109;-67
2023/07/29 05:18:18;;;;;;;9.98;3.92;;;;;;;;;;6305698;22;20027;-67
2023/07/29 05:20:44;;;;;;;10.48;3.85;;;;;;;;;;6279868;22;20010;-67
2023/07/29 05:23:10;;;;;;;11.52;4.30;;;;;;;;;;6279789;22;20078;-67
2023/07/29 05:25:35;;;;;;;13.15;4.13;;;;;;;;;;6278690;22;20034;-67
2023/07/29 05:28:02;;;;;;;11.15;4.22;;;;;;;;;;6307338;22;20434;-68
2023/07/29 05:30:30;;;;;;;15.35;4.68;;;;;;;;;;6279944;22;20068;-67
2023/07/29 05:32:57;;;;;;;9.60;4.00;;;;;;;;;;6306733;22;20015;-67
2023/07/29 05:35:23;;;;;;;11.10;4.32;;;;;;;;;;6253572;22;20007;-67
2023/07/29 05:37:49;;;;;;;9.88;4.63;;;;;;;;;;6305289;22;20022;-66
2023/07/29 05:40:15;;;;;;;10.95;4.13;;;;;;;;;;6307143;22;20325;-67
2023/07/29 05:42:41;;;;;;;6.32;3.67;;;;;;;;;;6305125;22;20082;-67
2023/07/29 05:45:07;;;;;;;9.55;4.20;;;;;;;;;;6306863;22;20543;-67
2023/07/29 05:47:33;;;;;;;12.02;4.25;;;;;;;;;;6278868;22;20019;-67
2023/07/29 05:50:01;;;;;;;12.73;4.57;;;;;;;;;;6306781;22;20568;-67
2023/07/29 05:52:27;;;;;;;11.55;4.25;;;;;;;;;;6306594;22;20444;-66
2023/07/29 05:54:53;;;;;;;6.53;3.90;;;;;;;;;;6307296;22;20003;-66
2023/07/29 05:57:18;;;;;;;10.07;3.78;;;;;;;;;;6279733;22;20011;-67
2023/07/29 05:59:45;;;;;;;10.77;4.07;;;;;;;;;;6305197;22;20027;-67
2023/07/29 06:02:10;;;;;;;8.60;3.78;;;;;;;;;;6278418;22;20013;-67
2023/07/29 06:04:36;;;;;;;8.40;3.65;;;;;;;;;;6303674;22;20099;-67
2023/07/29 06:07:02;;;;;;;6.05;3.70;;;;;;;;;;6306830;22;20372;-67
2023/07/29 06:09:28;;;;;;;9.88;3.90;;;;;;;;;;6279578;22;20007;-67
2023/07/29 06:11:53;;;;;;;9.82;3.80;;;;;;;;;;6278413;22;20417;-67
2023/07/29 06:14:19;;;;;;;8.13;4.35;;;;;;;;;;6305738;22;19999;-68
2023/07/29 06:16:47;;;;;;;5.38;2.92;;;;;;;;;;6304519;22;20015;-68
2023/07/29 06:19:13;;;;;;;5.63;2.70;;;;;;;;;;6306283;22;20026;-67
2023/07/29 06:21:40;;;;;;;4.22;2.70;;;;;;;;;;6278346;22;20018;-67
2023/07/29 06:24:05;;;;;;;4.63;2.88;;;;;;;;;;6277898;22;20109;-67
2023/07/29 06:26:31;;;;;;;8.63;3.33;;;;;;;;;;6306332;22;20094;-68
2023/07/29 06:28:56;;;;;;;5.68;2.97;;;;;;;;;;6305706;22;20011;-68
2023/07/29 06:31:22;;;;;;;4.65;2.90;;;;;;;;;;6305916;22;20007;-68
2023/07/29 06:33:48;;;;;;;5.88;3.33;;;;;;;;;;6305674;22;19999;-68
2023/07/29 06:36:14;;;;;;;8.15;3.13;;;;;;;;;;6306014;22;20037;-68
2023/07/29 06:38:40;;;;;;;6.97;2.88;;;;;;;;;;6305436;22;20506;-68
2023/07/29 06:41:06;;;;;;;5.00;2.55;;;;;;;;;;6305970;22;20007;-68
2023/07/29 06:43:32;;;;;;;7.25;2.60;;;;;;;;;;6277871;22;20007;-69
2023/07/29 06:45:57;;;;;;;3.72;2.60;;;;;;;;;;6305396;22;20082;-69
2023/07/29 06:48:23;;;;;;;4.68;2.60;;;;;;;;;;6305770;22;20007;-68
2023/07/29 06:50:50;;;;;;;8.70;2.55;;;;;;;;;;6305991;22;20035;-67
2023/07/29 06:53:16;;;;;;;5.18;2.65;;;;;;;;;;6305050;22;20011;-68
2023/07/29 06:55:43;;;;;;;5.80;3.00;;;;;;;;;;6306062;22;20014;-67
2023/07/29 06:58:09;;;;;;;6.53;2.97;;;;;;;;;;6306221;22;19999;-68
2023/07/29 07:00:35;;;;;;;6.70;2.65;;;;;;;;;;6306029;22;20007;-68
2023/07/29 07:03:01;;;;;;;4.32;2.60;;;;;;;;;;6305382;22;20006;-69
2023/07/29 07:05:26;;;;;;;9.63;2.95;;;;;;;;;;6306160;22;20015;-68
2023/07/29 07:07:52;;;;;;;6.60;2.40;;;;;;;;;;6305044;22;20011;-67
2023/07/29 07:10:19;;;;;;;5.80;2.55;;;;;;;;;;6305955;22;20038;-68
2023/07/29 07:12:44;;;;;;;5.00;2.70;;;;;;;;;;6305537;22;20414;-67
2023/07/29 07:15:10;;;;;;;6.22;2.78;;;;;;;;;;6305365;22;20038;-67
2023/07/29 07:17:36;;;;;;;7.55;3.00;;;;;;;;;;6305332;22;19996;-68
2023/07/29 07:20:02;;;;;;;5.53;2.90;;;;;;;;;;6305379;22;20018;-67
2023/07/29 07:22:27;;;;;;;4.20;2.38;;;;;;;;;;6305622;22;20003;-67
2023/07/29 07:24:53;;;;;;;6.32;2.60;;;;;;;;;;6305531;22;20025;-68
2023/07/29 07:27:19;;;;;;;6.15;2.53;;;;;;;;;;6305462;22;20018;-68
2023/07/29 07:29:44;;;;;;;4.80;2.70;;;;;;;;;;6277723;22;20086;-67
2023/07/29 07:32:10;;;;;;;5.85;3.00;;;;;;;;;;6305391;22;20076;-67
2023/07/29 07:34:36;;;;;;;8.43;2.72;;;;;;;;;;6305030;22;20384;-67
2023/07/29 07:37:03;;;;;;;5.10;2.70;;;;;;;;;;6304725;22;20077;-67
2023/07/29 07:39:29;;;;;;;8.43;3.13;;;;;;;;;;6278187;22;20011;-67
2023/07/29 07:41:55;;;;;;;4.15;2.47;;;;;;;;;;6305814;22;20003;-67
2023/07/29 07:44:21;;;;;;;4.88;2.70;;;;;;;;;;6304547;22;20011;-67
2023/07/29 07:46:46;;;;;;;6.22;2.85;;;;;;;;;;6305272;22;20376;-68
2023/07/29 07:49:12;;;;;;;4.82;2.40;;;;;;;;;;6305217;22;20031;-68
2023/07/29 07:51:39;;;;;;;4.47;2.75;;;;;;;;;;6304695;22;20087;-68
2023/07/29 07:54:04;;;;;;;4.35;2.70;;;;;;;;;;6305079;22;20089;-68
2023/07/29 07:56:30;;;;;;;4.03;2.50;;;;;;;;;;6305593;22;20381;-67
2023/07/29 07:58:56;;;;;;;4.47;2.53;;;;;;;;;;6304456;22;20319;-67
2023/07/29 08:01:21;;;;;;;4.93;2.90;;;;;;;;;;6304611;22;20039;-67
2023/07/29 08:03:47;;;;;;;7.13;2.70;;;;;;;;;;6304938;22;20015;-67
2023/07/29 08:06:13;;;;;;;8.38;3.63;;;;;;;;;;6304938;22;20006;-66
2023/07/29 08:08:39;;;;;;;6.53;3.00;;;;;;;;;;6305705;22;20392;-68
2023/07/29 08:11:05;;;;;;;11.95;4.10;;;;;;;;;;6305267;22;19999;-67
2023/07/29 08:13:30;;;;;;;7.53;3.17;;;;;;;;;;6304009;22;20004;-67
2023/07/29 08:15:56;;;;;;;9.63;3.10;;;;;;;;;;6304618;22;20013;-67
2023/07/29 08:18:22;;;;;;;4.80;3.10;;;;;;;;;;6301976;22;20007;-67
2023/07/29 08:20:59;;;;;;;8.95;2.70;;;;;;;;;;6304990;22;20467;-68
2023/07/29 08:23:25;;;;;;;5.63;2.70;;;;;;;;;;6304573;22;20049;-67
2023/07/29 08:26:00;;;;;;;7.20;2.65;;;;;;;;;;6303866;22;19999;-67
2023/07/29 08:28:31;;;;;;;5.40;2.80;;;;;;;;;;6303281;22;20056;-68
2023/07/29 08:30:56;;;;;;;9.55;3.80;;;;;;;;;;6304980;22;20007;-67
2023/07/29 08:33:22;;;;;;;4.75;2.67;;;;;;;;;;6303612;22;20287;-67
2023/07/29 08:35:48;;;;;;;4.32;2.90;;;;;;;;;;6300317;22;20007;-67
2023/07/29 08:38:13;;;;;;;5.03;2.80;;;;;;;;;;6305234;22;20003;-67
2023/07/29 08:40:56;;;;;;;6.32;2.70;;;;;;;;;;6304658;22;20069;-67
2023/07/29 08:43:28;;;;;;;5.80;2.72;;;;;;;;;;6305585;22;20074;-68
2023/07/29 08:45:54;;;;;;;6.47;2.63;;;;;;;;;;6305447;22;20379;-68
2023/07/29 08:48:31;;;;;;;8.23;2.75;;;;;;;;;;6305478;22;20221;-68
2023/07/29 08:51:00;;;;;;;6.70;2.78;;;;;;;;;;6304656;22;20064;-68
2023/07/29 08:53:27;;;;;;;4.32;2.70;;;;;;;;;;6304530;22;19999;-68
2023/07/29 08:55:55;;;;;;;8.10;2.85;;;;;;;;;;6305487;22;20042;-69
2023/07/29 08:58:22;;;;;;;7.97;3.15;;;;;;;;;;6305477;22;20069;-67
2023/07/29 09:00:48;;;;;;;7.00;2.95;;;;;;;;;;6304941;22;20011;-67
2023/07/29 09:03:14;;;;;;;5.50;2.92;;;;;;;;;;6305464;22;20153;-67
2023/07/29 09:05:39;;;;;;;3.72;2.45;;;;;;;;;;6304886;22;20015;-67
2023/07/29 09:08:06;;;;;;;7.20;3.55;;;;;;;;;;6304743;22;20007;-67
2023/07/29 09:10:37;;;;;;;14.18;3.08;;;;;;;;;;6306885;22;20089;-66
2023/07/29 09:13:03;;;;;;;6.65;2.80;;;;;;;;;;6306650;22;20445;-68
2023/07/29 09:15:36;;;;;;;5.15;2.85;;;;;;;;;;6279948;22;20020;-68
2023/07/29 09:18:11;;;;;;;5.55;2.88;;;;;;;;;;6276225;22;20018;-67
2023/07/29 09:20:37;;;;;;;8.27;2.80;;;;;;;;;;6275995;22;20096;-67
2023/07/29 09:23:03;;;;;;;6.20;2.58;;;;;;;;;;6276171;22;20000;-67
2023/07/29 09:25:30;;;;;;;8.25;3.45;;;;;;;;;;6275070;22;20027;-68
2023/07/29 09:28:02;;;;;;;6.60;3.25;;;;;;;;;;6275858;22;20010;-67
2023/07/29 09:30:28;;;;;;;4.85;2.80;;;;;;;;;;6275521;22;20007;-68
2023/07/29 09:32:58;;;;;;;7.60;2.58;;;;;;;;;;6275714;22;19996;-68
2023/07/29 09:35:27;;;;;;;5.22;2.85;;;;;;;;;;6276203;22;20030;-68
2023/07/29 09:37:53;;;;;;;7.45;2.60;;;;;;;;;;6275890;22;19999;-68
2023/07/29 09:40:19;;;;;;;5.18;2.80;;;;;;;;;;6276008;22;20330;-68
2023/07/29 09:42:54;;;;;;;5.32;3.00;;;;;;;;;;6275495;22;20007;-68
2023/07/29 09:45:22;;;;;;;3.75;2.58;;;;;;;;;;6275963;22;20007;-68
2023/07/29 09:47:49;;;;;;;10.50;3.10;;;;;;;;;;6276027;22;20256;-67
2023/07/29 09:50:14;;;;;;;4.72;3.22;;;;;;;;;;6276063;22;20086;-67
2023/07/29 09:52:41;;;;;;;7.85;2.90;;;;;;;;;;6276034;22;20050;-67
2023/07/29 09:55:07;;;;;;;7.85;3.95;;;;;;;;;;6276053;22;20294;-68
2023/07/29 09:57:33;;;;;;;6.80;3.40;;;;;;;;;;6276436;22;20038;-68
2023/07/29 09:59:59;;;;;;;7.18;3.97;;;;;;;;;;6275057;22;20010;-68
2023/07/29 10:02:28;;;;;;;5.50;2.97;;;;;;;;;;6274050;22;20000;-67
2023/07/29 10:04:55;;;;;;;6.43;2.85;;;;;;;;;;6273671;22;20007;-68
2023/07/29 10:07:21;;;;;;;8.73;2.90;;;;;;;;;;6274919;22;20003;-68
2023/07/29 10:09:47;;;;;;;6.55;2.88;;;;;;;;;;6273325;22;20512;-68
2023/07/29 10:12:14;;;;;;;9.23;3.03;;;;;;;;;;6274954;22;20000;-67
2023/07/29 10:14:41;;;;;;;7.20;3.00;;;;;;;;;;6275120;22;20345;-67
2023/07/29 10:17:07;;;;;;;7.78;3.03;;;;;;;;;;6273995;22;20023;-67
2023/07/29 10:19:34;;;;;;;6.15;2.90;;;;;;;;;;6275099;22;20038;-67
2023/07/29 10:22:02;;;;;;;5.97;2.97;;;;;;;;;;6275563;22;20421;-68
2023/07/29 10:24:33;;;;;;;7.97;3.47;;;;;;;;;;6275208;22;20012;-67
2023/07/29 10:27:01;;;;;;;4.43;2.83;;;;;;;;;;6275287;22;20008;-67
2023/07/29 10:29:38;;;;;;;9.15;3.35;;;;;;;;;;6247948;22;20825;-68
2023/07/29 10:32:05;;;;;;;4.90;3.17;;;;;;;;;;6275483;22;20012;-68
2023/07/29 10:34:36;;;;;;;10.43;3.55;;;;;;;;;;6274821;22;20008;-68
2023/07/29 10:37:02;;;;;;;8.30;3.20;;;;;;;;;;6275434;22;20011;-68
2023/07/29 10:39:39;;;;;;;6.88;2.47;;;;;;;;;;6273700;22;20066;-67
2023/07/29 10:42:07;;;;;;;8.75;2.95;;;;;;;;;;6275040;22;20038;-68
2023/07/29 10:44:39;;;;;;;7.57;3.28;;;;;;;;;;6275022;22;20069;-68
2023/07/29 10:47:12;;;;;;;8.88;3.35;;;;;;;;;;6275057;22;20019;-68
2023/07/29 10:49:41;;;;;;;6.25;2.78;;;;;;;;;;6274897;22;20460;-68
2023/07/29 10:52:07;;;;;;;10.93;3.85;;;;;;;;;;6274272;22;20003;-67
2023/07/29 10:54:43;;;;;;;4.40;3.03;;;;;;;;;;6274968;22;20311;-68
2023/07/29 10:57:16;;;;;;;7.47;3.85;;;;;;;;;;6275173;22;20007;-68
2023/07/29 10:59:57;;;;;;;5.93;2.90;;;;;;;;;;6274637;22;20031;-68
2023/07/29 11:02:29;;;;;;;5.45;2.90;;;;;;;;;;6274839;22;20075;-68
2023/07/29 11:04:55;;;;;;;7.18;2.85;;;;;;;;;;6273231;22;20078;-68
2023/07/29 11:07:28;;;;;;;6.15;2.80;;;;;;;;;;6273317;22;20058;-68
2023/07/29 11:09:56;;;;;;;10.38;3.75;;;;;;;;;;6274998;22;20016;-67
2023/07/29 11:12:36;;;;;;;5.25;2.55;;;;;;;;;;6274732;22;20007;-67
2023/07/29 11:15:09;;;;;;;5.82;3.40;;;;;;;;;;6274815;22;20007;-67
2023/07/29 11:17:35;;;;;;;4.20;2.95;;;;;;;;;;6274824;22;20078;-68
2023/07/29 11:20:03;;;;;;;7.63;2.70;;;;;;;;;;6248105;22;20009;-67
2023/07/29 11:22:29;;;;;;;5.05;2.75;;;;;;;;;;6248298;22;20094;-67
2023/07/29 11:24:55;;;;;;;4.18;3.10;;;;;;;;;;6274299;22;20472;-67
2023/07/29 11:27:21;;;;;;;5.03;2.65;;;;;;;;;;6274803;22;20012;-68
2023/07/29 11:29:47;;;;;;;8.15;2.80;;;;;;;;;;6274778;22;20126;-70
2023/07/29 11:32:14;;;;;;;3.83;2.72;;;;;;;;;;6274520;22;20007;-68
2023/07/29 11:34:41;;;;;;;3.55;2.67;;;;;;;;;;6274788;22;20014;-68
2023/07/29 11:37:08;;;;;;;9.00;2.80;;;;;;;;;;6274867;22;20070;-71
2023/07/29 11:39:39;;;;;;;4.07;2.63;;;;;;;;;;6248436;22;20007;-69
2023/07/29 11:42:05;;;;;;;12.35;3.83;;;;;;;;;;6275536;22;20004;-69
2023/07/29 11:44:31;;;;;;;7.30;3.13;;;;;;;;;;6275146;22;20034;-70
2023/07/29 11:46:57;;;;;;;6.85;3.30;;;;;;;;;;6274775;22;20083;-70
2023/07/29 11:49:22;;;;;;;8.13;2.85;;;;;;;;;;6274414;22;20015;-69
2023/07/29 11:51:48;;;;;;;8.80;2.60;;;;;;;;;;6247519;22;20042;-68
2023/07/29 11:54:15;;;;;;;4.80;2.60;;;;;;;;;;6274711;22;20061;-68
2023/07/29 11:56:41;;;;;;;6.50;2.65;;;;;;;;;;6275133;22;20319;-69
2023/07/29 11:59:07;;;;;;;4.50;2.90;;;;;;;;;;6274722;22;20003;-68
2023/07/29 12:01:33;;;;;;;5.10;2.67;;;;;;;;;;6274502;22;20030;-68
2023/07/29 12:04:00;;;;;;;3.20;2.50;;;;;;;;;;6274202;22;20418;-68
2023/07/29 12:06:26;;;;;;;7.47;2.80;;;;;;;;;;6274641;22;20011;-68
2023/07/29 12:08:52;;;;;;;6.57;3.30;;;;;;;;;;6274830;22;20430;-68
2023/07/29 12:11:18;;;;;;;4.20;2.42;;;;;;;;;;6274438;22;20019;-69
2023/07/29 12:13:43;;;;;;;6.13;2.65;;;;;;;;;;6274294;22;20007;-69
2023/07/29 12:16:09;;;;;;;3.95;2.42;;;;;;;;;;6274467;22;20014;-69
2023/07/29 12:18:36;;;;;;;6.43;2.50;;;;;;;;;;6274535;22;20340;-70
2023/07/29 12:21:03;;;;;;;4.35;2.60;;;;;;;;;;6274118;22;20057;-69
2023/07/29 12:23:29;;;;;;;4.97;2.45;;;;;;;;;;6274725;22;19996;-68
2023/07/29 12:25:59;;;;;;;3.38;2.38;;;;;;;;;;6274410;22;20011;-70
2023/07/29 12:28:26;;;;;;;3.50;2.50;;;;;;;;;;6274525;22;20082;-70
2023/07/29 12:30:55;;;;;;;4.25;2.47;;;;;;;;;;6247604;22;20058;-68
2023/07/29 12:33:41;;;;;;;4.28;2.70;;;;;;;;;;6274715;22;20377;-68
2023/07/29 12:36:08;;;;;;;3.60;2.10;;;;;;;;;;6274728;22;20473;-68
2023/07/29 12:38:33;;;;;;;6.43;2.35;;;;;;;;;;6274891;22;20422;-69
2023/07/29 12:40:59;;;;;;;5.03;2.55;;;;;;;;;;6274718;22;20007;-67
2023/07/29 12:43:25;;;;;;;3.80;2.15;;;;;;;;;;6274842;22;20023;-69
2023/07/29 12:45:51;;;;;;;3.45;2.38;;;;;;;;;;6277123;22;20027;-68
2023/07/29 12:48:17;;;;;;;4.57;2.63;;;;;;;;;;6276763;22;20007;-68
2023/07/29 12:50:43;;;;;;;4.55;2.10;;;;;;;;;;6276393;22;20030;-68
2023/07/29 12:53:12;;;;;;;4.70;2.60;;;;;;;;;;6276115;22;20080;-68
2023/07/29 12:55:38;;;;;;;4.55;2.60;;;;;;;;;;6276131;22;20018;-66
2023/07/29 12:58:04;;;;;;;3.08;2.17;;;;;;;;;;6276763;22;20003;-68
2023/07/29 13:00:30;;;;;;;5.97;2.30;;;;;;;;;;6170107;22;20011;-66
2023/07/29 13:02:56;;;;;;;4.18;2.17;;;;;;;;;;6249145;22;20055;-67
2023/07/29 13:05:22;;;;;;;3.45;2.20;;;;;;;;;;6276505;22;20011;-67
2023/07/29 13:07:47;;;;;;;5.55;2.15;;;;;;;;;;6275921;22;20010;-68
2023/07/29 13:10:14;;;;;;;3.55;2.00;;;;;;;;;;6276604;22;20059;-67
2023/07/29 13:12:40;;;;;;;4.50;2.15;;;;;;;;;;6275430;22;20075;-69
2023/07/29 13:15:06;;;;;;;6.35;2.30;;;;;;;;;;6276231;22;20122;-67
2023/07/29 13:17:33;;;;;;;4.95;2.20;;;;;;;;;;6275025;22;20062;-67
2023/07/29 13:19:59;;;;;;;4.57;2.13;;;;;;;;;;6275281;22;20086;-68
2023/07/29 13:22:25;;;;;;;5.35;2.17;;;;;;;;;;6276349;22;20419;-68
2023/07/29 13:24:50;;;;;;;4.28;2.42;;;;;;;;;;6276718;22;20035;-68
2023/07/29 13:27:16;;;;;;;3.15;2.35;;;;;;;;;;6276298;22;20351;-67
2023/07/29 13:29:43;;;;;;;3.58;2.20;;;;;;;;;;6276229;22;20061;-67
2023/07/29 13:32:09;;;;;;;4.15;2.25;;;;;;;;;;6275998;22;20496;-67
2023/07/29 13:34:35;;;;;;;3.47;2.08;;;;;;;;;;6273723;22;20450;-67
2023/07/29 13:37:01;;;;;;;3.67;2.17;;;;;;;;;;6274670;22;20034;-66
2023/07/29 13:39:27;;;;;;;3.30;2.38;;;;;;;;;;6275862;22;20097;-68
2023/07/29 13:41:54;;;;;;;5.28;2.80;;;;;;;;;;6275308;22;20481;-67
2023/07/29 13:44:20;;;;;;;3.65;2.35;;;;;;;;;;6274869;22;20004;-67
2023/07/29 13:46:47;;;;;;;2.38;2.00;;;;;;;;;;6275394;22;20003;-66
2023/07/29 13:49:12;;;;;;;4.20;2.22;;;;;;;;;;6275030;22;20103;-66
2023/07/29 13:51:38;;;;;;;3.50;2.15;;;;;;;;;;6275148;22;19996;-67
2023/07/29 13:54:04;;;;;;;4.10;2.20;;;;;;;;;;6276136;22;20042;-66
2023/07/29 13:56:29;;;;;;;4.13;2.03;;;;;;;;;;6274733;22;20354;-68
2023/07/29 13:58:55;;;;;;;4.47;2.13;;;;;;;;;;6275622;22;20011;-67
2023/07/29 14:01:21;;;;;;;3.00;1.88;;;;;;;;;;6275638;22;20078;-66
2023/07/29 14:03:46;;;;;;;5.72;2.10;;;;;;;;;;6273397;22;20007;-67
2023/07/29 14:06:12;;;;;;;2.60;2.20;;;;;;;;;;6274040;22;20082;-67
2023/07/29 14:08:40;;;;;;;6.38;2.30;;;;;;;;;;6274834;22;20015;-67
2023/07/29 14:11:07;;;;;;;4.07;1.88;;;;;;;;;;6276099;22;20512;-67
2023/07/29 14:13:32;;;;;;;2.75;2.15;;;;;;;;;;6275461;22;20018;-67
2023/07/29 14:16:02;;;;;;;3.47;1.90;;;;;;;;;;6275016;22;20003;-68
2023/07/29 14:18:28;;;;;;;5.20;2.38;;;;;;;;;;6275593;22;20129;-66
2023/07/29 14:20:53;;;;;;;4.00;2.08;;;;;;;;;;6274166;22;20003;-67
2023/07/29 14:23:19;;;;;;;4.05;2.20;;;;;;;;;;6272980;22;20006;-68
2023/07/29 14:25:45;;;;;;;3.97;2.00;;;;;;;;;;6273156;22;19996;-67
2023/07/29 14:28:14;;;;;;;4.80;2.10;;;;;;;;;;6271595;22;20011;-67
2023/07/29 14:30:40;;;;;;;5.60;2.30;;;;;;;;;;6274666;22;20421;-67
2023/07/29 14:33:07;;;;;;;3.13;1.88;;;;;;;;;;6275167;22;20460;-67
2023/07/29 14:35:32;;;;;;;3.35;2.08;;;;;;;;;;6275430;22;20007;-67
2023/07/29 14:37:58;;;;;;;3.47;2.05;;;;;;;;;;6276065;22;20011;-66
2023/07/29 14:40:24;;;;;;;6.00;2.15;;;;;;;;;;6274941;22;20050;-67